Details From TBPB - Barbados - Grantley Adams Intl
To TNCB - Bonaire Flamingo
Flight Number -
Tags Routegen Generated
Created
Modified
Stats Distance 516 nm / 955 km
Max Altitude 7,800 ft / 2,377 m
Waypoints 7
Social Downloads 4
Likes 0
Share VATSIM

Download

Looking for another format? Having issues loading an existing format? Contact us
Advertisement - Login to hide

Notes

Departing runway 25 TBPB. Arriving runway 9 TNCB.

Route

TBPB +13.05_-059.58 +12.87_-061.48 +12.68_-063.38 +12.47_-065.28 +12.13_-068.18 TNCB

ID Type Via Altitude Latitude Longitude Leg Dist Tot Dist Heading (true) Name
O TBPB APT - 0 ft / 0 m 13.07091˚ -59.50749˚ - 0 nm - -
+13.05_-059.58 LATLON - 7,800 ft / 2,377 m 13.05324˚ -59.57953˚ 4 nm 4 nm 256° / 256° -
+12.87_-061.48 LATLON - 7,800 ft / 2,377 m 12.87271˚ -61.48033˚ 111 nm 116 nm 265° / 264° -
+12.68_-063.38 LATLON - 7,800 ft / 2,377 m 12.67887˚ -63.38005˚ 111 nm 227 nm 264° / 264° -
+12.47_-065.28 LATLON - 7,800 ft / 2,377 m 12.47156˚ -65.27678˚ 111 nm 339 nm 264° / 263° -
+12.13_-068.18 LATLON - 580 ft / 177 m 12.12842˚ -68.18129˚ 171 nm 511 nm 263° / 263° -
O TNCB APT - 0 ft / 0 m 12.13065˚ -68.25527˚ 4 nm 515 nm 272° / 272° -

Altitude Profile

Advertisement - Login to hide

Weather


0- 5 10 15 20 25 30 35+ Temperature / ° C

Clouds and Precipitation
Forecast for 2017-12-16 00:00 UTC. Updated 24 minutes ago

Ground ~20,000 ft ~40,000 ft Winds

TBPB

Details ICAO TBPB (BGI)
Name Barbados/Grantley Adams Intl
Region Barbados
Timezone America/Barbados (UTC-4.0)
Stats Elevation 168 ft / 51 m (AMSL)
Location 13.074614° -59.492206°
Runways 1
Magnetic Variation 15.612° W

METAR

TBPB 152100Z 09014KT 9999 SCT020 28/22 Q1013 NOSIG

Decode

TAF

Not found

Departure Runways

ID Width Length Bearing (true) Bearing (mag) Surface Threshold Offset Overrun Length
09 148 ft / 45 m 11,924 ft / 3,635 m 75.84° 91.45° Asphalt 0 ft / 0 m 174 ft / 53 m
27 148 ft / 45 m 11,924 ft / 3,635 m 255.85° 271.46° Asphalt 0 ft / 0 m 0 ft / 0 m

TNCB

Details ICAO TNCB (BON)
Name Bonaire Flamingo
Region Caribbean Netherlands, Aruba, Curaçao, Sint Maarten
Timezone America/Curacao (UTC-4.0)
Stats Elevation 20 ft / 6 m (AMSL)
Location 12.131046° -68.268511°
Runways 1
Magnetic Variation 11.704° W

METAR

TNCB 152055Z AUTO 10015KT 070V130 9999 NSC 28/23 Q1012

Decode

TAF

TAF TNCB 151719Z 1518/1624 08015KT 9999 SCT018 PROB30 TEMPO 1607/1615 6000 SHRA SCT015CB BKN030

Decode

Destination Runways

ID Width Length Bearing (true) Bearing (mag) Surface Threshold Offset Overrun Length
10 148 ft / 45 m 9,451 ft / 2,881 m 91.75° 103.45° Asphalt 0 ft / 0 m 0 ft / 0 m
28 148 ft / 45 m 9,451 ft / 2,881 m 271.76° 283.46° Asphalt 0 ft / 0 m 200 ft / 61 m